createdAt,value
2023-04-12T00:00:52.637Z,95888.94
2023-04-12T00:01:54.201Z,95883.59
2023-04-12T00:02:55.852Z,95881.63
2023-04-12T00:03:57.635Z,95877.75
2023-04-12T00:05:02.684Z,95883.88
2023-04-12T00:06:07.342Z,95885.44
2023-04-12T00:07:10.108Z,95881.19
2023-04-12T00:08:11.625Z,95876.56
2023-04-12T00:09:13.809Z,95880.34
2023-04-12T00:10:15.570Z,95877.09
2023-04-12T00:11:17.154Z,95875.19
2023-04-12T00:12:19.475Z,95878.63
2023-04-12T00:13:21.147Z,95868.44
2023-04-12T00:14:22.689Z,95871.75
2023-04-12T00:15:24.407Z,95872.44
2023-04-12T00:16:26.175Z,95865.53
2023-04-12T00:17:27.873Z,95874.44
2023-04-12T00:18:29.419Z,95866.53
2023-04-12T00:19:31.136Z,95880.34
2023-04-12T00:20:32.960Z,95867.59
2023-04-12T00:21:34.477Z,95869.41
2023-04-12T00:22:37.048Z,95864.84
2023-04-12T00:23:39.443Z,95868.81
2023-04-12T00:24:41.629Z,95858.09
2023-04-12T00:25:43.150Z,95865.06
2023-04-12T00:26:44.676Z,95858.84
2023-04-12T00:27:46.212Z,95861.88
2023-04-12T00:28:48.443Z,95865.69
2023-04-12T00:29:49.978Z,95862.56
2023-04-12T00:30:51.581Z,95865.69
2023-04-12T00:31:53.369Z,95863.00
2023-04-12T00:32:54.944Z,95867.53
2023-04-12T00:33:56.713Z,95864.84
2023-04-12T00:34:58.436Z,95859.91
2023-04-12T00:36:00.001Z,95858.00
2023-04-12T00:37:02.299Z,95859.22
2023-04-12T00:38:06.218Z,95856.03
2023-04-12T00:39:07.936Z,95853.34
2023-04-12T00:40:10.186Z,95853.06
2023-04-12T00:41:12.735Z,95849.69
2023-04-12T00:42:14.323Z,95849.69
2023-04-12T00:43:19.722Z,95849.28
2023-04-12T00:44:21.308Z,95853.41
2023-04-12T00:45:23.192Z,95849.19
2023-04-12T00:46:24.819Z,95838.19
2023-04-12T00:47:26.656Z,95833.72
2023-04-12T00:48:28.918Z,95848.63
2023-04-12T00:49:31.521Z,95848.22
2023-04-12T00:50:33.080Z,95838.19
2023-04-12T00:51:34.670Z,95840.47
2023-04-12T00:52:36.386Z,95838.91
2023-04-12T00:53:39.677Z,95844.75
2023-04-12T00:54:43.296Z,95841.31
2023-04-12T00:55:46.093Z,95842.38
2023-04-12T00:56:48.117Z,95839.06
2023-04-12T00:57:49.876Z,95839.91
2023-04-12T00:58:52.431Z,95839.13
2023-04-12T00:59:53.988Z,95841.47
2023-04-12T01:00:55.622Z,95838.50
2023-04-12T01:01:58.252Z,95838.50
2023-04-12T01:03:02.479Z,95843.16
2023-04-12T01:04:04.833Z,95840.03
2023-04-12T01:05:08.540Z,95836.94
2023-04-12T01:06:21.163Z,95837.78
2023-04-12T01:07:55.440Z,95833.25
2023-04-12T01:09:06.279Z,95833.34
2023-04-12T01:10:20.604Z,95835.00
2023-04-12T01:11:42.353Z,95833.44
2023-04-12T01:12:44.318Z,95837.41
2023-04-12T01:14:14.962Z,95830.19
2023-04-12T01:15:17.269Z,95832.16
2023-04-12T01:16:46.211Z,95829.91
2023-04-12T01:17:58.193Z,95827.22
2023-04-12T01:19:06.316Z,95826.38
2023-04-12T01:20:14.395Z,95826.50
2023-04-12T01:21:31.280Z,95823.19
2023-04-12T01:23:43.806Z,95820.84
2023-04-12T01:25:03.825Z,95820.22
2023-04-12T01:26:21.879Z,95814.06
2023-04-12T01:27:42.141Z,95815.28
2023-04-12T01:28:45.330Z,95816.34
2023-04-12T01:29:50.094Z,95813.69
2023-04-12T01:30:52.200Z,95822.13
2023-04-12T01:31:58.189Z,95813.38
2023-04-12T01:33:07.285Z,95817.19
2023-04-12T01:34:11.880Z,95815.63
2023-04-12T01:35:15.911Z,95818.03
2023-04-12T01:36:22.775Z,95818.78
2023-04-12T01:37:24.614Z,95822.53
2023-04-12T01:38:27.144Z,95824.03
2023-04-12T01:39:30.917Z,95823.25
2023-04-12T01:40:33.374Z,95814.41
2023-04-12T01:41:39.981Z,95826.00
2023-04-12T01:42:41.536Z,95826.34
2023-04-12T01:43:44.103Z,95824.03
2023-04-12T01:44:46.027Z,95823.91
2023-04-12T01:45:47.617Z,95824.69
2023-04-12T01:46:49.684Z,95823.19
2023-04-12T01:47:51.313Z,95825.09
2023-04-12T01:48:54.532Z,95831.56
2023-04-12T01:50:04.980Z,95831.56
2023-04-12T01:51:14.391Z,95833.41
2023-04-12T01:52:21.180Z,95828.50
2023-04-12T01:53:38.025Z,95828.06
2023-04-12T01:54:42.654Z,95833.75
2023-04-12T01:55:48.331Z,95830.03
2023-04-12T01:56:54.887Z,95830.34
2023-04-12T01:57:57.754Z,95832.16
2023-04-12T01:59:02.378Z,95829.56
2023-04-12T02:00:07.640Z,95834.13
2023-04-12T02:01:11.776Z,95828.69
2023-04-12T02:02:13.945Z,95832.88
2023-04-12T02:03:16.623Z,95836.63
2023-04-12T02:04:19.735Z,95829.34
2023-04-12T02:05:21.584Z,95837.50
2023-04-12T02:06:23.882Z,95836.09
2023-04-12T02:07:25.651Z,95836.09
2023-04-12T02:08:27.195Z,95833.00
2023-04-12T02:09:28.774Z,95838.38
2023-04-12T02:10:36.574Z,95839.13
2023-04-12T02:11:38.187Z,95835.94
2023-04-12T02:12:39.739Z,95837.78
2023-04-12T02:13:41.435Z,95831.47
2023-04-12T02:14:43.000Z,95829.06
2023-04-12T02:15:45.884Z,95826.09
2023-04-12T02:16:48.031Z,95826.09
2023-04-12T02:17:54.007Z,95823.81
2023-04-12T02:18:58.873Z,95824.19
2023-04-12T02:20:01.044Z,95817.78
2023-04-12T02:21:02.629Z,95821.72
2023-04-12T02:22:05.769Z,95830.94
2023-04-12T02:23:07.284Z,95821.00
2023-04-12T02:24:10.431Z,95822.13
2023-04-12T02:25:12.059Z,95828.59
2023-04-12T02:26:13.606Z,95817.88
2023-04-12T02:27:18.818Z,95818.31
2023-04-12T02:28:20.424Z,95823.38
2023-04-12T02:29:21.962Z,95815.75
2023-04-12T02:30:23.559Z,95810.28
2023-04-12T02:31:25.129Z,95815.50
2023-04-12T02:32:26.671Z,95804.78
2023-04-12T02:33:29.177Z,95807.84
2023-04-12T02:34:34.309Z,95806.28
2023-04-12T02:35:36.421Z,95808.91
2023-04-12T02:36:38.195Z,95810.84
2023-04-12T02:37:40.462Z,95807.88
2023-04-12T02:38:42.094Z,95809.44
2023-04-12T02:39:44.760Z,95806.75
2023-04-12T02:40:46.292Z,95801.75
2023-04-12T02:41:47.865Z,95805.56
2023-04-12T02:42:49.496Z,95812.47
2023-04-12T02:43:51.449Z,95805.66
2023-04-12T02:44:53.050Z,95806.22
2023-04-12T02:45:54.691Z,95803.63
2023-04-12T02:46:56.292Z,95803.25
2023-04-12T02:47:57.842Z,95809.75
2023-04-12T02:48:59.377Z,95805.09
2023-04-12T02:50:00.985Z,95802.00
2023-04-12T02:51:02.649Z,95802.13
2023-04-12T02:52:04.795Z,95806.09
2023-04-12T02:53:06.337Z,95793.03
2023-04-12T02:54:07.873Z,95793.31
2023-04-12T02:55:09.777Z,95800.28
2023-04-12T02:56:12.029Z,95787.72
2023-04-12T02:57:13.766Z,95796.97
2023-04-12T02:58:15.386Z,95793.94
2023-04-12T02:59:17.276Z,95793.22
2023-04-12T03:00:19.107Z,95796.91
2023-04-12T03:01:20.770Z,95796.47
2023-04-12T03:02:23.353Z,95791.19
2023-04-12T03:03:26.310Z,95790.16
2023-04-12T03:04:30.678Z,95795.97
2023-04-12T03:05:32.404Z,95791.66
2023-04-12T03:06:34.124Z,95800.72
2023-04-12T03:07:36.270Z,95789.22
2023-04-12T03:08:38.344Z,95787.31
2023-04-12T03:09:42.583Z,95798.09
2023-04-12T03:10:44.329Z,95795.50
2023-04-12T03:11:46.845Z,95795.13
2023-04-12T03:12:48.400Z,95796.72
2023-04-12T03:13:49.932Z,95796.44
2023-04-12T03:14:51.517Z,95793.84
2023-04-12T03:15:58.379Z,95793.84
2023-04-12T03:17:00.024Z,95795.78
2023-04-12T03:18:01.649Z,95794.72
2023-04-12T03:19:03.606Z,95798.53
2023-04-12T03:20:11.099Z,95798.13
2023-04-12T03:21:12.639Z,95805.75
2023-04-12T03:22:14.212Z,95804.19
2023-04-12T03:23:15.869Z,95798.13
2023-04-12T03:24:17.465Z,95798.53
2023-04-12T03:25:19.181Z,95794.38
2023-04-12T03:26:20.868Z,95797.41
2023-04-12T03:27:22.485Z,95790.78
2023-04-12T03:28:23.997Z,95793.75
2023-04-12T03:29:25.540Z,95799.41
2023-04-12T03:30:27.067Z,95798.28
2023-04-12T03:31:28.653Z,95797.16
2023-04-12T03:32:30.376Z,95796.03
2023-04-12T03:33:31.984Z,95801.03
2023-04-12T03:34:33.606Z,95800.28
2023-04-12T03:35:35.204Z,95801.81
2023-04-12T03:36:38.044Z,95799.91
2023-04-12T03:37:41.505Z,95800.28
2023-04-12T03:38:43.045Z,95791.81
2023-04-12T03:39:47.975Z,95794.13
2023-04-12T03:40:49.893Z,95798.00
2023-04-12T03:41:53.143Z,95797.69
2023-04-12T03:42:54.741Z,95789.25
2023-04-12T03:43:56.923Z,95793.47
2023-04-12T03:44:58.772Z,95794.25
2023-04-12T03:46:00.392Z,95794.13
2023-04-12T03:47:02.045Z,95795.38
2023-04-12T03:48:05.026Z,95792.97
2023-04-12T03:49:06.616Z,95795.06
2023-04-12T03:50:12.235Z,95796.50
2023-04-12T03:51:15.353Z,95801.84
2023-04-12T03:52:16.875Z,95802.47
2023-04-12T03:53:18.386Z,95804.09
2023-04-12T03:54:20.717Z,95801.13
2023-04-12T03:55:22.511Z,95798.88
2023-04-12T03:56:24.094Z,95795.38
2023-04-12T03:57:26.162Z,95797.75
2023-04-12T03:58:27.699Z,95803.09
2023-04-12T03:59:29.742Z,95807.53
2023-04-12T04:00:34.128Z,95811.94
2023-04-12T04:01:36.326Z,95809.09
2023-04-12T04:02:38.530Z,95809.16
2023-04-12T04:03:41.243Z,95810.84
2023-04-12T04:04:43.183Z,95810.56
2023-04-12T04:05:45.317Z,95816.34
2023-04-12T04:06:47.369Z,95824.03
2023-04-12T04:07:48.912Z,95817.59
2023-04-12T04:08:50.719Z,95820.34
2023-04-12T04:09:54.548Z,95831.13
2023-04-12T04:11:00.731Z,95820.84
2023-04-12T04:12:02.344Z,95833.50
2023-04-12T04:13:03.927Z,95835.91
2023-04-12T04:14:05.723Z,95838.28
2023-04-12T04:15:07.958Z,95834.53
2023-04-12T04:16:11.048Z,95827.69
2023-04-12T04:17:12.624Z,95838.47
2023-04-12T04:18:14.298Z,95833.53
2023-04-12T04:19:15.892Z,95838.94
2023-04-12T04:20:18.854Z,95841.66
2023-04-12T04:21:22.372Z,95840.19
2023-04-12T04:22:23.980Z,95841.72
2023-04-12T04:23:25.502Z,95844.84
2023-04-12T04:24:27.037Z,95839.50
2023-04-12T04:25:30.191Z,95840.28
2023-04-12T04:26:34.633Z,95844.00
2023-04-12T04:27:38.511Z,95838.63
2023-04-12T04:28:45.550Z,95844.78
2023-04-12T04:29:47.403Z,95848.94
2023-04-12T04:30:48.982Z,95845.97
2023-04-12T04:31:50.877Z,95844.09
2023-04-12T04:32:52.902Z,95849.53
2023-04-12T04:33:54.642Z,95850.31
2023-04-12T04:34:59.844Z,95848.34
2023-04-12T04:36:02.110Z,95849.16
2023-04-12T04:37:03.716Z,95847.34
2023-04-12T04:38:05.215Z,95845.44
2023-04-12T04:39:06.746Z,95851.19
2023-04-12T04:40:08.891Z,95845.00
2023-04-12T04:41:10.473Z,95849.25
2023-04-12T04:42:11.981Z,95846.56
2023-04-12T04:43:13.981Z,95844.22
2023-04-12T04:44:15.581Z,95851.75
2023-04-12T04:45:17.204Z,95849.38
2023-04-12T04:46:22.122Z,95847.88
2023-04-12T04:47:25.092Z,95847.94
2023-04-12T04:48:26.883Z,95856.38
2023-04-12T04:49:29.308Z,95859.84
2023-04-12T04:50:31.278Z,95849.47
2023-04-12T04:51:32.970Z,95850.84
2023-04-12T04:52:34.527Z,95859.13
2023-04-12T04:53:36.983Z,95855.34
2023-04-12T04:54:38.884Z,95862.25
2023-04-12T04:55:41.372Z,95856.75
2023-04-12T04:56:42.926Z,95858.19
2023-04-12T04:57:44.949Z,95860.47
2023-04-12T04:58:46.678Z,95856.50
2023-04-12T04:59:48.181Z,95851.84
2023-04-12T05:00:49.825Z,95852.72
2023-04-12T05:01:52.414Z,95860.16
2023-04-12T05:02:54.242Z,95857.28
2023-04-12T05:03:56.303Z,95859.75
2023-04-12T05:05:00.004Z,95866.41
2023-04-12T05:06:04.420Z,95864.25
2023-04-12T05:07:06.323Z,95868.19
2023-04-12T05:08:07.995Z,95865.91
2023-04-12T05:09:10.148Z,95867.06
2023-04-12T05:10:11.976Z,95866.75
2023-04-12T05:11:13.702Z,95869.13
2023-04-12T05:12:15.458Z,95872.34
2023-04-12T05:13:17.041Z,95873.97
2023-04-12T05:14:18.902Z,95871.00
2023-04-12T05:15:21.319Z,95877.19
2023-04-12T05:16:22.914Z,95874.91
2023-04-12T05:17:24.493Z,95864.13
2023-04-12T05:18:26.328Z,95874.91
2023-04-12T05:19:27.821Z,95877.19
2023-04-12T05:20:29.335Z,95880.78
2023-04-12T05:21:31.190Z,95881.94
2023-04-12T05:22:32.748Z,95873.63
2023-04-12T05:23:41.851Z,95879.47
2023-04-12T05:24:43.406Z,95880.63
2023-04-12T05:25:48.433Z,95875.66
2023-04-12T05:26:50.840Z,95880.28
2023-04-12T05:27:52.379Z,95874.50
2023-04-12T05:28:53.980Z,95881.09
2023-04-12T05:29:57.154Z,95874.13
2023-04-12T05:30:58.862Z,95875.72
2023-04-12T05:32:00.481Z,95879.13
2023-04-12T05:33:02.174Z,95868.31
2023-04-12T05:34:03.980Z,95873.97
2023-04-12T05:35:06.193Z,95872.03
2023-04-12T05:36:07.974Z,95869.75
2023-04-12T05:37:09.717Z,95871.72
2023-04-12T05:38:11.330Z,95870.69
2023-04-12T05:39:12.882Z,95873.47
2023-04-12T05:40:14.445Z,95863.22
2023-04-12T05:41:16.060Z,95870.22
2023-04-12T05:42:17.580Z,95882.56
2023-04-12T05:43:19.253Z,95876.88
2023-04-12T05:44:20.839Z,95876.88
2023-04-12T05:45:22.447Z,95876.16
2023-04-12T05:46:24.073Z,95879.25
2023-04-12T05:47:25.794Z,95884.69
2023-04-12T05:48:27.412Z,95878.63
2023-04-12T05:49:31.295Z,95876.03
2023-04-12T05:50:32.878Z,95878.72
2023-04-12T05:51:41.063Z,95877.97
2023-04-12T05:52:43.298Z,95880.34
2023-04-12T05:53:44.840Z,95882.00
2023-04-12T05:54:46.495Z,95869.44
2023-04-12T05:55:48.253Z,95879.47
2023-04-12T05:56:49.891Z,95888.38
2023-04-12T05:57:51.592Z,95872.69
2023-04-12T05:58:53.142Z,95885.41
2023-04-12T05:59:54.929Z,95878.91
2023-04-12T06:00:56.547Z,95892.47
2023-04-12T06:01:58.929Z,95882.47
2023-04-12T06:03:00.636Z,95891.34
2023-04-12T06:04:02.500Z,95879.50
2023-04-12T06:05:05.246Z,95885.69
2023-04-12T06:06:08.001Z,95886.53
2023-04-12T06:07:10.082Z,95884.66
2023-04-12T06:08:12.936Z,95894.41
2023-04-12T06:09:15.173Z,95883.63
2023-04-12T06:10:18.056Z,95878.09
2023-04-12T06:11:19.757Z,95884.97
2023-04-12T06:12:21.320Z,95883.44
2023-04-12T06:13:22.864Z,95891.88
2023-04-12T06:14:24.429Z,95870.75
2023-04-12T06:15:26.320Z,95881.94
2023-04-12T06:16:28.075Z,95886.97
2023-04-12T06:17:29.705Z,95883.50
2023-04-12T06:18:31.502Z,95876.56
2023-04-12T06:19:33.025Z,95875.78
2023-04-12T06:20:34.776Z,95888.88
2023-04-12T06:21:36.458Z,95888.81
2023-04-12T06:22:38.402Z,95878.44
2023-04-12T06:23:39.984Z,95875.69
2023-04-12T06:24:41.601Z,95872.94
2023-04-12T06:25:43.194Z,95877.91
2023-04-12T06:26:47.010Z,95869.50
2023-04-12T06:27:48.560Z,95871.72
2023-04-12T06:28:50.066Z,95871.22
2023-04-12T06:29:52.117Z,95860.78
2023-04-12T06:30:54.478Z,95873.09
2023-04-12T06:31:56.100Z,95868.53
2023-04-12T06:32:58.010Z,95862.34
2023-04-12T06:34:00.990Z,95867.78
2023-04-12T06:35:02.768Z,95860.88
2023-04-12T06:36:04.679Z,95859.41
2023-04-12T06:37:06.206Z,95885.50
2023-04-12T06:38:07.748Z,95874.72
2023-04-12T06:39:09.726Z,95871.72
2023-04-12T06:40:12.597Z,95873.22
2023-04-12T06:41:14.348Z,95865.44
2023-04-12T06:42:16.069Z,95867.63
2023-04-12T06:43:20.303Z,95870.69
2023-04-12T06:44:21.904Z,95874.53
2023-04-12T06:45:23.481Z,95873.00
2023-04-12T06:46:28.394Z,95889.53
2023-04-12T06:47:30.808Z,95882.16
2023-04-12T06:48:32.405Z,95887.88
2023-04-12T06:49:33.949Z,95885.91
2023-04-12T06:50:35.677Z,95881.25
2023-04-12T06:51:37.365Z,95876.59
2023-04-12T06:52:38.944Z,95888.06
2023-04-12T06:53:40.634Z,95878.94
2023-04-12T06:54:42.455Z,95880.00
2023-04-12T06:55:44.062Z,95879.63
2023-04-12T06:56:45.673Z,95879.56
2023-04-12T06:57:47.311Z,95874.16
2023-04-12T06:58:48.964Z,95875.34
2023-04-12T06:59:51.621Z,95886.50
2023-04-12T07:00:53.196Z,95888.81
2023-04-12T07:01:54.956Z,95894.19
2023-04-12T07:02:56.754Z,95893.38
2023-04-12T07:03:58.575Z,95908.69
2023-04-12T07:05:00.183Z,95900.25
2023-04-12T07:06:17.209Z,95897.16
2023-04-12T07:07:25.883Z,95906.75
2023-04-12T07:08:29.702Z,95904.03
2023-04-12T07:09:32.530Z,95917.50
2023-04-12T07:10:36.065Z,95911.75
2023-04-12T07:11:37.620Z,95922.44
2023-04-12T07:12:39.346Z,95917.78
2023-04-12T07:13:40.915Z,95917.06
2023-04-12T07:14:44.645Z,95916.34
2023-04-12T07:15:47.315Z,95918.59
2023-04-12T07:16:49.211Z,95927.03
2023-04-12T07:17:51.872Z,95920.16
2023-04-12T07:18:53.429Z,95920.94
2023-04-12T07:19:55.130Z,95925.53
2023-04-12T07:20:59.561Z,95914.06
2023-04-12T07:22:01.135Z,95918.59
2023-04-12T07:23:02.695Z,95919.38
2023-04-12T07:24:04.463Z,95920.78
2023-04-12T07:25:10.320Z,95913.03
2023-04-12T07:26:11.976Z,95917.72
2023-04-12T07:27:13.528Z,95920.44
2023-04-12T07:28:15.092Z,95925.81
2023-04-12T07:29:17.407Z,95934.53
2023-04-12T07:30:19.081Z,95928.03
2023-04-12T07:31:20.860Z,95931.13
2023-04-12T07:32:23.078Z,95924.59
2023-04-12T07:33:26.505Z,95932.34
2023-04-12T07:34:28.279Z,95938.97
2023-04-12T07:35:29.962Z,95928.56
2023-04-12T07:36:31.940Z,95938.56
2023-04-12T07:37:33.454Z,95924.81
2023-04-12T07:38:35.092Z,95929.44
2023-04-12T07:39:37.486Z,95937.50
2023-04-12T07:40:39.099Z,95943.22
2023-04-12T07:41:46.338Z,95946.31
2023-04-12T07:42:47.855Z,95933.28
2023-04-12T07:43:50.406Z,95934.84
2023-04-12T07:44:51.947Z,95939.06
2023-04-12T07:45:56.474Z,95939.84
2023-04-12T07:46:58.188Z,95940.31
2023-04-12T07:47:59.765Z,95937.31
2023-04-12T07:49:01.611Z,95948.84
2023-04-12T07:50:04.115Z,95948.06
2023-04-12T07:51:06.221Z,95942.63
2023-04-12T07:52:07.902Z,95950.31
2023-04-12T07:53:22.894Z,95938.75
2023-04-12T07:54:27.824Z,95948.94
2023-04-12T07:55:29.424Z,95942.38
2023-04-12T07:56:34.561Z,95933.94
2023-04-12T07:57:36.457Z,95928.56
2023-04-12T07:58:38.027Z,95938.50
2023-04-12T07:59:39.638Z,95936.13
2023-04-12T08:00:41.428Z,95938.47
2023-04-12T08:01:43.006Z,95937.72
2023-04-12T08:02:44.689Z,95938.88
2023-04-12T08:03:47.523Z,95934.66
2023-04-12T08:04:49.248Z,95940.72
2023-04-12T08:05:53.834Z,95936.81
2023-04-12T08:06:55.694Z,95938.28
2023-04-12T08:07:57.231Z,95935.94
2023-04-12T08:08:58.800Z,95949.84
2023-04-12T08:10:00.351Z,95944.88
2023-04-12T08:11:03.096Z,95943.72
2023-04-12T08:12:04.797Z,95938.78
2023-04-12T08:13:07.023Z,95935.63
2023-04-12T08:14:08.639Z,95937.44
2023-04-12T08:15:10.504Z,95931.22
2023-04-12T08:16:13.207Z,95943.50
2023-04-12T08:17:16.634Z,95922.78
2023-04-12T08:18:18.491Z,95925.06
2023-04-12T08:19:20.466Z,95929.69
2023-04-12T08:20:22.098Z,95905.81
2023-04-12T08:21:23.792Z,95925.00
2023-04-12T08:22:25.935Z,95916.25
2023-04-12T08:23:28.120Z,95925.84
2023-04-12T08:24:29.804Z,95921.34
2023-04-12T08:25:31.512Z,95918.34
2023-04-12T08:26:33.129Z,95913.78
2023-04-12T08:27:34.912Z,95907.66
2023-04-12T08:28:37.833Z,95897.66
2023-04-12T08:29:40.996Z,95909.91
2023-04-12T08:30:43.747Z,95906.97
2023-04-12T08:31:47.325Z,95903.84
2023-04-12T08:32:48.942Z,95904.66
2023-04-12T08:33:50.734Z,95909.34
2023-04-12T08:34:52.312Z,95906.97
2023-04-12T08:35:54.357Z,95892.75
2023-04-12T08:36:59.278Z,95903.13
2023-04-12T08:38:06.961Z,95902.41
2023-04-12T08:39:09.548Z,95903.13
2023-04-12T08:40:11.402Z,95908.63
2023-04-12T08:41:14.022Z,95899.84
2023-04-12T08:42:16.898Z,95903.81
2023-04-12T08:43:22.192Z,95907.31
2023-04-12T08:44:35.910Z,95898.16
2023-04-12T08:45:38.045Z,95905.84
2023-04-12T08:46:39.755Z,95898.63
2023-04-12T08:47:43.711Z,95905.28
2023-04-12T08:48:47.520Z,95891.50
2023-04-12T08:49:49.285Z,95916.13
2023-04-12T08:50:52.158Z,95900.84
2023-04-12T08:51:55.145Z,95895.28
2023-04-12T08:52:58.919Z,95888.91
2023-04-12T08:54:00.546Z,95908.38
2023-04-12T08:55:04.322Z,95906.94
2023-04-12T08:56:09.467Z,95909.97
2023-04-12T08:57:13.210Z,95912.69
2023-04-12T08:58:15.788Z,95908.47
2023-04-12T08:59:17.718Z,95912.25
2023-04-12T09:00:20.937Z,95909.09
2023-04-12T09:01:22.677Z,95917.53
2023-04-12T09:02:24.403Z,95918.94
2023-04-12T09:03:26.715Z,95918.38
2023-04-12T09:04:29.648Z,95932.75
2023-04-12T09:05:31.912Z,95912.94
2023-04-12T09:06:33.762Z,95919.53
2023-04-12T09:07:36.166Z,95920.91
2023-04-12T09:08:37.860Z,95924.22
2023-04-12T09:09:42.957Z,95904.38
2023-04-12T09:10:44.698Z,95914.16
2023-04-12T09:11:46.231Z,95911.78
2023-04-12T09:12:47.865Z,95905.59
2023-04-12T09:13:49.418Z,95914.03
2023-04-12T09:15:12.638Z,95911.34
2023-04-12T09:16:14.415Z,95907.97
2023-04-12T09:17:23.956Z,95909.56
2023-04-12T09:18:27.486Z,95901.38
2023-04-12T09:19:34.135Z,95899.00
2023-04-12T09:20:36.808Z,95894.22
2023-04-12T09:21:52.872Z,95887.50
2023-04-12T09:22:55.799Z,95886.78
2023-04-12T09:24:14.764Z,95888.97
2023-04-12T09:25:16.659Z,95892.09
2023-04-12T09:26:29.008Z,95886.78
2023-04-12T09:27:30.592Z,95882.22
2023-04-12T09:28:32.347Z,95877.56
2023-04-12T09:29:34.375Z,95887.53
2023-04-12T09:30:42.237Z,95883.28
2023-04-12T09:31:56.030Z,95872.16
2023-04-12T09:33:11.322Z,95886.75
2023-04-12T09:34:12.872Z,95884.09
2023-04-12T09:35:14.492Z,95869.19
2023-04-12T09:36:17.580Z,95870.81
2023-04-12T09:37:19.141Z,95872.84
2023-04-12T09:38:20.670Z,95871.75
2023-04-12T09:39:33.070Z,95854.16
2023-04-12T09:40:36.460Z,95860.00
2023-04-12T09:41:38.110Z,95862.38
2023-04-12T09:42:53.784Z,95857.81
2023-04-12T09:43:55.839Z,95863.22
2023-04-12T09:44:58.592Z,95869.81
2023-04-12T09:46:11.823Z,95859.94
2023-04-12T09:47:13.620Z,95846.50
2023-04-12T09:48:21.219Z,95855.44
2023-04-12T09:49:44.842Z,95847.50
2023-04-12T09:50:46.430Z,95839.50
2023-04-12T09:51:52.621Z,95831.09
2023-04-12T09:52:55.322Z,95827.63
2023-04-12T09:54:02.287Z,95846.44
2023-04-12T09:55:09.851Z,95838.34
2023-04-12T09:56:12.449Z,95843.38
2023-04-12T09:57:18.003Z,95841.09
2023-04-12T09:58:21.476Z,95845.00
2023-04-12T09:59:27.206Z,95834.25
2023-04-12T10:00:30.488Z,95834.31
2023-04-12T10:01:38.697Z,95835.03
2023-04-12T10:02:42.797Z,95844.31
2023-04-12T10:03:46.734Z,95815.47
2023-04-12T10:04:48.865Z,95827.75
2023-04-12T10:05:50.560Z,95819.69
2023-04-12T10:06:52.392Z,95822.78
2023-04-12T10:07:55.128Z,95828.22
2023-04-12T10:08:57.417Z,95821.31
2023-04-12T10:10:00.987Z,95832.84
2023-04-12T10:11:02.884Z,95820.13
2023-04-12T10:12:05.199Z,95813.59
2023-04-12T10:13:07.324Z,95810.53
2023-04-12T10:14:10.268Z,95803.59
2023-04-12T10:15:13.608Z,95805.94
2023-04-12T10:16:16.494Z,95799.00
2023-04-12T10:17:21.345Z,95811.34
2023-04-12T10:18:24.008Z,95794.75
2023-04-12T10:19:26.874Z,95797.03
2023-04-12T10:20:29.722Z,95797.41
2023-04-12T10:21:31.589Z,95789.72
2023-04-12T10:22:33.259Z,95797.78
2023-04-12T10:23:35.324Z,95789.66
2023-04-12T10:24:38.833Z,95784.28
2023-04-12T10:25:42.828Z,95782.00
2023-04-12T10:26:44.696Z,95782.78
2023-04-12T10:27:47.645Z,95777.81
2023-04-12T10:29:23.535Z,95766.63
2023-04-12T10:30:32.177Z,95771.22
2023-04-12T10:31:34.246Z,95772.00
2023-04-12T10:32:36.518Z,95759.25
2023-04-12T10:33:38.379Z,95773.53
2023-04-12T10:34:42.721Z,95754.63
2023-04-12T10:36:00.708Z,95759.66
2023-04-12T10:37:02.885Z,95734.94
2023-04-12T10:38:04.999Z,95721.44
2023-04-12T10:39:11.085Z,95744.16
2023-04-12T10:40:19.607Z,95728.72
2023-04-12T10:41:22.229Z,95747.25
2023-04-12T10:42:28.968Z,95754.19
2023-04-12T10:43:30.767Z,95750.28
2023-04-12T10:44:32.411Z,95747.16
2023-04-12T10:45:34.157Z,95749.78
2023-04-12T10:46:39.300Z,95734.66
2023-04-12T10:47:50.304Z,95741.69
2023-04-12T10:48:53.467Z,95735.47
2023-04-12T10:50:20.002Z,95742.91
2023-04-12T10:51:25.516Z,95742.50
2023-04-12T10:52:27.137Z,95736.34
2023-04-12T10:53:28.920Z,95747.16
2023-04-12T10:54:35.589Z,95747.16
2023-04-12T10:55:38.541Z,95737.84
2023-04-12T10:56:47.424Z,95742.47
2023-04-12T10:57:50.272Z,95745.16
2023-04-12T10:58:52.377Z,95729.34
2023-04-12T10:59:59.582Z,95737.81
2023-04-12T11:01:10.048Z,95752.50
2023-04-12T11:02:12.755Z,95747.81
2023-04-12T11:03:14.969Z,95736.91
2023-04-12T11:04:21.279Z,95728.75
2023-04-12T11:05:24.531Z,95737.69
2023-04-12T11:07:03.193Z,95720.38
2023-04-12T11:08:05.748Z,95731.66
2023-04-12T11:09:07.479Z,95728.59
2023-04-12T11:10:16.690Z,95731.34
2023-04-12T11:11:22.739Z,95728.63
2023-04-12T11:12:29.172Z,95720.13
2023-04-12T11:13:40.090Z,95731.69
2023-04-12T11:14:53.139Z,95742.44
2023-04-12T11:16:02.073Z,95723.88
2023-04-12T11:17:06.550Z,95729.28
2023-04-12T11:18:08.601Z,95715.47
2023-04-12T11:19:10.780Z,95722.50
2023-04-12T11:20:15.980Z,95707.50
2023-04-12T11:21:19.043Z,95717.16
2023-04-12T11:22:22.795Z,95715.19
2023-04-12T11:23:24.650Z,95719.44
2023-04-12T11:24:27.582Z,95703.59
2023-04-12T11:25:29.690Z,95719.44
2023-04-12T11:26:32.118Z,95722.53
2023-04-12T11:27:34.466Z,95721.69
2023-04-12T11:28:36.175Z,95710.00
2023-04-12T11:29:38.122Z,95722.34
2023-04-12T11:30:58.124Z,95709.63
2023-04-12T11:32:02.572Z,95708.09
2023-04-12T11:33:04.272Z,95707.72
2023-04-12T11:34:05.909Z,95700.06
2023-04-12T11:35:08.766Z,95708.56
2023-04-12T11:36:15.121Z,95704.75
2023-04-12T11:37:19.793Z,95712.81
2023-04-12T11:38:21.351Z,95700.00
2023-04-12T11:39:22.937Z,95702.72
2023-04-12T11:40:24.551Z,95696.56
2023-04-12T11:41:26.152Z,95696.53
2023-04-12T11:42:29.344Z,95689.19
2023-04-12T11:43:31.637Z,95681.47
2023-04-12T11:44:44.194Z,95680.59
2023-04-12T11:46:01.565Z,95692.94
2023-04-12T11:47:04.456Z,95694.81
2023-04-12T11:48:09.326Z,95691.34
2023-04-12T11:49:11.085Z,95693.66
2023-04-12T11:50:12.938Z,95689.75
2023-04-12T11:51:32.185Z,95691.19
2023-04-12T11:52:34.393Z,95670.34
2023-04-12T11:53:35.999Z,95677.06
2023-04-12T11:54:37.494Z,95682.19
2023-04-12T11:55:39.235Z,95697.25
2023-04-12T11:56:41.988Z,95684.41
2023-04-12T11:57:43.514Z,95709.88
2023-04-12T11:58:47.917Z,95695.19
2023-04-12T11:59:49.776Z,95689.81
2023-04-12T12:00:51.902Z,95689.09
2023-04-12T12:01:54.293Z,95690.94
2023-04-12T12:03:06.838Z,95687.47
2023-04-12T12:04:09.370Z,95679.72
2023-04-12T12:05:11.722Z,95672.41
2023-04-12T12:06:14.686Z,95677.47
2023-04-12T12:07:17.841Z,95687.53
2023-04-12T12:08:20.064Z,95689.06
2023-04-12T12:09:21.926Z,95692.88
2023-04-12T12:10:40.068Z,95685.09
2023-04-12T12:11:45.373Z,95680.47
2023-04-12T12:12:48.128Z,95672.72
2023-04-12T12:13:49.610Z,95671.91
2023-04-12T12:14:51.214Z,95681.16
2023-04-12T12:15:53.068Z,95682.66
2023-04-12T12:16:56.927Z,95675.69
2023-04-12T12:17:58.574Z,95681.88
2023-04-12T12:19:04.224Z,95673.31
2023-04-12T12:20:07.101Z,95678.00
2023-04-12T12:21:10.827Z,95661.78
2023-04-12T12:22:19.726Z,95678.50
2023-04-12T12:23:28.753Z,95670.75
2023-04-12T12:24:31.126Z,95678.09
2023-04-12T12:25:32.639Z,95661.44
2023-04-12T12:26:36.327Z,95687.28
2023-04-12T12:27:38.921Z,95683.00